Time;durP1;ratioP1;P1;durP2;ratioP2;P2;SDS_P1;SDS_P2;PMS_P1;PMS_P2;Temp;Humidity;BMP_temperature;BMP_pressure;BME280_temperature;BME280_humidity;BME280_pressure;Samples;Min_cycle;Max_cycle;Signal;HPM_P1;HPM_P2
2022/09/18 00:01:17;;;;;;;4.85;3.15;;;;;;;-145.49;100.00;62790.56;4965994;28;20393;-74
2022/09/18 00:03:43;;;;;;;2.10;1.73;;;;;;;-145.49;100.00;62790.56;4938952;28;20520;-74
2022/09/18 00:06:12;;;;;;;4.70;2.65;;;;;;;-145.49;100.00;62790.56;4973565;28;20035;-73
2022/09/18 00:08:39;;;;;;;5.32;3.08;;;;;;;-145.49;100.00;62790.56;4972278;28;20516;-74
2022/09/18 00:11:07;;;;;;;2.80;2.42;;;;;;;-145.49;100.00;62790.56;4982769;28;20412;-74
2022/09/18 00:13:36;;;;;;;7.97;2.60;;;;;;;-145.49;100.00;62790.56;4961814;28;20069;-74
2022/09/18 00:16:06;;;;;;;7.60;2.03;;;;;;;-145.49;100.00;62790.56;4967090;28;20404;-74
2022/09/18 00:18:35;;;;;;;3.80;1.75;;;;;;;-145.49;100.00;62790.56;4970365;28;20388;-74
2022/09/18 00:21:15;;;;;;;4.38;2.47;;;;;;;-145.49;100.00;62790.56;4963476;28;20069;-74
2022/09/18 00:23:42;;;;;;;8.93;2.65;;;;;;;-145.49;100.00;62790.56;4984767;28;20046;-74
2022/09/18 00:26:12;;;;;;;4.03;2.50;;;;;;;-145.49;100.00;62790.56;4961033;28;20039;-74
2022/09/18 00:28:38;;;;;;;4.65;1.42;;;;;;;-145.49;100.00;62790.56;4970253;28;20034;-73
2022/09/18 00:31:13;;;;;;;10.93;2.85;;;;;;;-145.49;100.00;62790.56;4954852;28;20034;-74
2022/09/18 00:33:41;;;;;;;3.90;1.75;;;;;;;-145.49;100.00;62790.56;4969357;28;20035;-74
2022/09/18 00:36:15;;;;;;;3.83;1.40;;;;;;;-145.49;100.00;62790.56;4964739;28;20050;-74
2022/09/18 00:38:41;;;;;;;4.28;2.20;;;;;;;-145.49;100.00;62790.56;4952941;28;20043;-74
2022/09/18 00:41:16;;;;;;;7.55;2.63;;;;;;;-145.49;100.00;62790.56;4971053;28;20043;-74
2022/09/18 00:43:44;;;;;;;4.75;1.92;;;;;;;-145.49;100.00;62790.56;4982137;28;20038;-74
2022/09/18 00:46:21;;;;;;;2.13;1.92;;;;;;;-145.49;100.00;62790.56;4969756;28;20042;-74
2022/09/18 00:49:17;;;;;;;4.07;1.70;;;;;;;-145.49;100.00;62790.56;4952148;29;20047;-74
2022/09/18 00:51:46;;;;;;;7.35;3.30;;;;;;;-145.49;100.00;62790.56;4966208;28;20035;-74
2022/09/18 00:54:18;;;;;;;8.00;2.58;;;;;;;-145.49;100.00;62790.56;4953782;28;20053;-74
2022/09/18 00:56:47;;;;;;;7.47;2.30;;;;;;;-145.49;100.00;62790.56;4971778;28;20034;-74
2022/09/18 00:59:21;;;;;;;7.93;2.25;;;;;;;-145.49;100.00;62790.56;4957749;28;20050;-73
2022/09/18 01:01:47;;;;;;;5.25;3.45;;;;;;;-145.49;100.00;62790.56;4976852;28;20026;-74
2022/09/18 01:04:14;;;;;;;3.50;2.40;;;;;;;-145.49;100.00;62790.56;4969789;28;20053;-74
2022/09/18 01:06:52;;;;;;;5.18;3.15;;;;;;;-145.49;100.00;62790.56;4968100;28;20035;-73
2022/09/18 01:09:29;;;;;;;8.98;2.90;;;;;;;-145.49;100.00;62790.56;4957888;28;20042;-74
2022/09/18 01:12:17;;;;;;;4.05;2.17;;;;;;;-145.49;100.00;62790.56;4979693;28;20047;-74
2022/09/18 01:15:01;;;;;;;3.20;2.72;;;;;;;-145.49;100.00;62790.56;4975695;28;20042;-73
2022/09/18 01:17:37;;;;;;;3.50;2.60;;;;;;;-145.49;100.00;62790.56;4958031;28;20062;-74
2022/09/18 01:20:34;;;;;;;3.70;2.40;;;;;;;-145.49;100.00;62790.56;4962329;28;20496;-74
2022/09/18 01:23:19;;;;;;;3.08;1.83;;;;;;;-145.49;100.00;62790.56;4972335;28;20405;-74
2022/09/18 01:26:17;;;;;;;7.60;2.38;;;;;;;-145.49;100.00;62790.56;4976665;28;20619;-74
2022/09/18 01:28:57;;;;;;;5.07;2.17;;;;;;;-145.49;100.00;62790.56;4978084;28;20366;-74
2022/09/18 01:31:30;;;;;;;6.20;2.75;;;;;;;-145.49;100.00;62790.56;4969377;28;20053;-74
2022/09/18 01:34:19;;;;;;;3.00;2.45;;;;;;;-145.49;100.00;62790.56;4981446;28;20039;-73
2022/09/18 01:36:53;;;;;;;6.43;2.75;;;;;;;-145.49;100.00;62790.56;4982861;28;20046;-74
2022/09/18 01:39:29;;;;;;;3.40;2.05;;;;;;;-145.49;100.00;62790.56;4967089;28;20498;-74
2022/09/18 01:42:01;;;;;;;5.38;2.83;;;;;;;-145.49;100.00;62790.56;4962076;28;20041;-74
2022/09/18 01:44:31;;;;;;;4.43;1.98;;;;;;;-145.49;100.00;62790.56;4966743;28;20400;-74
2022/09/18 01:47:07;;;;;;;6.07;2.53;;;;;;;-145.49;100.00;62790.56;4977092;28;20046;-74
2022/09/18 01:49:44;;;;;;;2.83;2.30;;;;;;;-145.49;100.00;62790.56;4963150;28;20054;-74
2022/09/18 01:52:23;;;;;;;4.07;2.25;;;;;;;-145.49;100.00;62790.56;4978509;28;20038;-73
2022/09/18 01:54:54;;;;;;;5.13;2.97;;;;;;;-145.49;100.00;62790.56;4986194;28;20432;-73
2022/09/18 01:57:25;;;;;;;4.15;1.90;;;;;;;-145.49;100.00;62790.56;4965721;28;20393;-74
2022/09/18 02:00:01;;;;;;;4.80;2.30;;;;;;;-145.49;100.00;62790.56;4969206;28;20034;-73
2022/09/18 02:02:37;;;;;;;2.60;1.90;;;;;;;-145.49;100.00;62790.56;4979880;28;20038;-73
2022/09/18 02:05:08;;;;;;;4.70;2.70;;;;;;;-145.49;100.00;62790.56;4966786;28;20047;-74
2022/09/18 02:07:48;;;;;;;4.22;2.45;;;;;;;-145.49;100.00;62790.56;4963767;28;20035;-73
2022/09/18 02:10:20;;;;;;;3.85;2.30;;;;;;;-145.49;100.00;62790.56;4972591;28;20519;-73
2022/09/18 02:12:48;;;;;;;2.53;1.95;;;;;;;-145.49;100.00;62790.56;4981649;28;20039;-74
2022/09/18 02:15:15;;;;;;;5.40;1.98;;;;;;;-145.49;100.00;62790.56;4976586;28;20043;-74
2022/09/18 02:17:59;;;;;;;3.42;2.10;;;;;;;-145.49;100.00;62790.56;4987297;28;20133;-74
2022/09/18 02:20:40;;;;;;;2.42;1.90;;;;;;;-145.49;100.00;62790.56;4985612;28;20496;-74
2022/09/18 02:23:07;;;;;;;4.68;2.55;;;;;;;-145.49;100.00;62790.56;4970294;28;20047;-74
2022/09/18 02:25:43;;;;;;;7.65;3.15;;;;;;;-145.49;100.00;62790.56;4963964;28;20050;-73
2022/09/18 02:28:12;;;;;;;;;;;;;;;-145.49;100.00;62790.56;4966786;28;20042;-73
2022/09/18 02:30:38;;;;;;;2.25;1.95;;;;;;;-145.49;100.00;62790.56;4988840;28;19972;-74
2022/09/18 02:33:22;;;;;;;2.80;2.08;;;;;;;-145.49;100.00;62790.56;4979381;28;20050;-73
2022/09/18 02:36:00;;;;;;;4.88;2.58;;;;;;;-145.49;100.00;62790.56;4968439;28;20045;-74
2022/09/18 02:38:38;;;;;;;5.57;2.85;;;;;;;-145.49;100.00;62790.56;4970527;28;20035;-74
2022/09/18 02:41:14;;;;;;;5.28;2.28;;;;;;;-145.49;100.00;62790.56;4981442;28;20122;-74
2022/09/18 02:43:46;;;;;;;11.65;2.42;;;;;;;-145.49;100.00;62790.56;4984882;28;20561;-74
2022/09/18 02:46:27;;;;;;;5.10;3.63;;;;;;;-145.49;100.00;62790.56;4981421;28;20042;-74
2022/09/18 02:49:08;;;;;;;2.65;2.42;;;;;;;-145.49;100.00;62790.56;4974622;28;20031;-73
2022/09/18 02:51:50;;;;;;;4.15;2.20;;;;;;;-145.49;100.00;62790.56;4980002;28;20043;-74
2022/09/18 02:54:34;;;;;;;3.67;1.27;;;;;;;-145.49;100.00;62790.56;4973918;28;20034;-74
2022/09/18 02:57:32;;;;;;;4.80;1.88;;;;;;;-145.49;100.00;62790.56;4977017;28;20041;-74
2022/09/18 03:00:00;;;;;;;5.50;1.88;;;;;;;-145.49;100.00;62790.56;4985017;28;20055;-74
2022/09/18 03:02:27;;;;;;;6.05;2.63;;;;;;;-145.49;100.00;62790.56;4970988;28;20515;-73
2022/09/18 03:04:54;;;;;;;2.72;1.95;;;;;;;-145.49;100.00;62790.56;4981907;28;20039;-74
2022/09/18 03:07:29;;;;;;;2.40;1.88;;;;;;;-145.49;100.00;62790.56;4982804;28;20041;-74
2022/09/18 03:09:57;;;;;;;4.68;2.30;;;;;;;-145.49;100.00;62790.56;4968528;28;20043;-73
2022/09/18 03:12:23;;;;;;;8.00;3.15;;;;;;;-145.49;100.00;62790.56;4989425;28;20045;-74
2022/09/18 03:14:49;;;;;;;4.07;2.22;;;;;;;-145.49;100.00;62790.56;4965341;28;20035;-74
2022/09/18 03:17:16;;;;;;;3.92;2.55;;;;;;;-145.49;100.00;62790.56;4971507;28;20046;-74
2022/09/18 03:19:49;;;;;;;6.45;2.35;;;;;;;-145.49;100.00;62790.56;4972947;28;20386;-73
2022/09/18 03:22:17;;;;;;;5.53;2.80;;;;;;;-145.49;100.00;62790.56;4985634;28;20035;-74
2022/09/18 03:24:43;;;;;;;4.90;2.28;;;;;;;-145.49;100.00;62790.56;4984575;28;20031;-74
2022/09/18 03:27:10;;;;;;;2.78;2.05;;;;;;;-145.49;100.00;62790.56;4960202;28;20035;-74
2022/09/18 03:29:36;;;;;;;13.57;3.65;;;;;;;-145.49;100.00;62790.56;4966205;28;20057;-73
2022/09/18 03:32:03;;;;;;;7.13;2.63;;;;;;;-145.49;100.00;62790.56;4983404;28;20042;-74
2022/09/18 03:34:35;;;;;;;5.60;2.92;;;;;;;-145.49;100.00;62790.56;4961041;28;20054;-74
2022/09/18 03:37:02;;;;;;;4.85;2.60;;;;;;;-145.49;100.00;62790.56;4973550;28;20050;-74
2022/09/18 03:39:33;;;;;;;4.20;1.95;;;;;;;-145.49;100.00;62790.56;4956278;28;20041;-74
2022/09/18 03:41:59;;;;;;;4.72;2.85;;;;;;;-145.49;100.00;62790.56;4966508;28;20058;-73
2022/09/18 03:44:26;;;;;;;7.72;2.30;;;;;;;-145.49;100.00;62790.56;5030520;23;20417;-90
2022/09/18 03:46:55;;;;;;;3.20;2.45;;;;;;;-145.49;100.00;62790.56;4944076;28;20061;-91
2022/09/18 03:49:21;;;;;;;3.17;2.33;;;;;;;-145.49;100.00;62790.56;4970415;28;20046;-90
2022/09/18 03:51:47;;;;;;;4.53;2.40;;;;;;;-145.49;100.00;62790.56;4985904;28;20031;-90
2022/09/18 03:54:14;;;;;;;3.90;3.20;;;;;;;-145.49;100.00;62790.56;4971460;28;20061;-91
2022/09/18 03:56:50;;;;;;;5.28;2.33;;;;;;;-145.49;100.00;62790.56;4969058;28;20046;-90
2022/09/18 03:59:31;;;;;;;4.72;1.80;;;;;;;-145.49;100.00;62790.56;4956114;28;20073;-90
2022/09/18 04:02:04;;;;;;;3.05;2.75;;;;;;;-145.49;100.00;62790.56;4982246;28;20035;-91
2022/09/18 04:04:49;;;;;;;7.30;2.35;;;;;;;-145.49;100.00;62790.56;4973882;28;20056;-91
2022/09/18 04:07:34;;;;;;;3.40;2.50;;;;;;;-145.49;100.00;62790.56;4974394;28;20038;-90
2022/09/18 04:10:20;;;;;;;2.20;1.80;;;;;;;-145.49;100.00;62790.56;4971192;28;20046;-90
2022/09/18 04:12:49;;;;;;;4.95;2.42;;;;;;;-145.49;100.00;62790.56;4963153;28;20034;-89
2022/09/18 04:15:20;;;;;;;6.03;2.67;;;;;;;-145.49;100.00;62790.56;4984428;28;20039;-91
2022/09/18 04:17:47;;;;;;;12.10;2.35;;;;;;;-145.49;100.00;62790.56;4981656;28;20035;-90
2022/09/18 04:20:13;;;;;;;3.40;2.05;;;;;;;-145.49;100.00;62790.56;4968405;28;20377;-91
2022/09/18 04:22:41;;;;;;;6.15;2.35;;;;;;;-145.49;100.00;62790.56;4979409;28;20043;-90
2022/09/18 04:25:08;;;;;;;4.53;2.92;;;;;;;-145.49;100.00;62790.56;4983072;28;20042;-91
2022/09/18 04:27:35;;;;;;;2.72;2.10;;;;;;;-145.49;100.00;62790.56;4971169;28;20031;-91
2022/09/18 04:30:02;;;;;;;3.03;1.77;;;;;;;-145.49;100.00;62790.56;4967978;28;20047;-91
2022/09/18 04:32:28;;;;;;;3.28;2.50;;;;;;;-145.49;100.00;62790.56;4971420;28;20489;-90
2022/09/18 04:34:55;;;;;;;4.50;3.03;;;;;;;-145.49;100.00;62790.56;5002049;28;20054;-92
2022/09/18 04:37:21;;;;;;;3.47;2.30;;;;;;;-145.49;100.00;62790.56;4970130;28;20050;-91
2022/09/18 04:39:49;;;;;;;3.33;2.88;;;;;;;-145.49;100.00;62790.56;4967584;28;20046;-92
2022/09/18 04:42:15;;;;;;;10.13;2.80;;;;;;;-145.49;100.00;62790.56;4968421;28;20035;-91
2022/09/18 04:44:43;;;;;;;7.90;2.47;;;;;;;-145.49;100.00;62790.56;4985534;28;20042;-91
2022/09/18 04:47:10;;;;;;;2.08;1.70;;;;;;;-145.49;100.00;62790.56;4969368;28;20035;-92
2022/09/18 04:49:37;;;;;;;2.28;1.60;;;;;;;-145.49;100.00;62790.56;4985824;28;20042;-91
2022/09/18 04:52:03;;;;;;;9.07;3.08;;;;;;;-145.49;100.00;62790.56;4966688;28;20043;-92
2022/09/18 04:54:30;;;;;;;6.57;2.25;;;;;;;-145.49;100.00;62790.56;4967172;28;20742;-91
2022/09/18 04:56:56;;;;;;;4.70;2.67;;;;;;;-145.49;100.00;62790.56;4955226;28;20050;-91
2022/09/18 04:59:23;;;;;;;3.05;2.30;;;;;;;-145.49;100.00;62790.56;4971312;28;20034;-92
2022/09/18 05:01:54;;;;;;;2.42;2.22;;;;;;;-145.49;100.00;62790.56;4960493;28;20031;-91
2022/09/18 05:04:20;;;;;;;2.08;1.55;;;;;;;-145.49;100.00;62790.56;4936695;29;20043;-90
2022/09/18 05:06:53;;;;;;;4.43;1.98;;;;;;;-145.49;100.00;62790.56;4968940;28;20038;-91
2022/09/18 05:09:19;;;;;;;4.07;2.58;;;;;;;-145.49;100.00;62790.56;4954441;28;20043;-91
2022/09/18 05:11:46;;;;;;;3.30;2.17;;;;;;;-145.49;100.00;62790.56;4975287;28;20404;-91
2022/09/18 05:14:13;;;;;;;4.53;3.03;;;;;;;-145.49;100.00;62790.56;4949314;28;20039;-91
2022/09/18 05:16:41;;;;;;;6.60;2.72;;;;;;;-145.49;100.00;62790.56;4977506;28;20050;-91
2022/09/18 05:19:30;;;;;;;3.75;2.25;;;;;;;-145.49;100.00;62790.56;4970687;28;20038;-92
2022/09/18 05:22:04;;;;;;;3.40;3.08;;;;;;;-145.49;100.00;62790.56;4986106;28;20061;-91
2022/09/18 05:24:34;;;;;;;2.40;1.88;;;;;;;-145.49;100.00;62790.56;4956092;28;20039;-90
2022/09/18 05:27:00;;;;;;;4.32;3.00;;;;;;;-145.49;100.00;62790.56;4962262;28;20034;-89
2022/09/18 05:29:28;;;;;;;3.72;2.60;;;;;;;-145.49;100.00;62790.56;4975512;28;21441;-90
2022/09/18 05:32:01;;;;;;;4.57;2.97;;;;;;;-145.49;100.00;62790.56;4985232;28;20505;-94
2022/09/18 05:34:27;;;;;;;3.15;2.58;;;;;;;-145.49;100.00;62790.56;4966368;28;20409;-90
2022/09/18 05:36:55;;;;;;;3.30;2.75;;;;;;;-145.49;100.00;62790.56;4974611;28;20050;-90
2022/09/18 05:39:21;;;;;;;2.55;1.70;;;;;;;-145.49;100.00;62790.56;4971522;28;20558;-91
2022/09/18 05:41:49;;;;;;;5.43;2.78;;;;;;;-145.49;100.00;62790.56;4982176;28;20035;-91
2022/09/18 05:44:16;;;;;;;3.38;2.55;;;;;;;-145.49;100.00;62790.56;4963589;28;20039;-89
2022/09/18 05:55:12;;;;;;;3.20;2.25;;;;;;;-145.49;100.00;62790.56;4996043;23;20463;-88
2022/09/18 05:57:41;;;;;;;5.07;2.55;;;;;;;-145.49;100.00;62790.56;4974749;28;20436;-88
2022/09/18 06:00:12;;;;;;;4.20;2.78;;;;;;;-145.49;100.00;62790.56;4956690;28;20038;-89
2022/09/18 06:02:57;;;;;;;6.07;3.97;;;;;;;-145.49;100.00;62790.56;4973226;28;20035;-88
2022/09/18 06:05:29;;;;;;;3.92;2.92;;;;;;;-145.49;100.00;62790.56;4973914;28;20042;-88
2022/09/18 06:08:03;;;;;;;4.50;3.33;;;;;;;-145.49;100.00;62790.56;4958162;28;20484;-89
2022/09/18 06:10:29;;;;;;;5.00;3.75;;;;;;;-145.49;100.00;62790.56;4973108;28;20057;-89
2022/09/18 06:13:07;;;;;;;5.63;3.08;;;;;;;-145.49;100.00;62790.56;4972731;28;20039;-87
2022/09/18 06:15:42;;;;;;;6.03;4.15;;;;;;;-145.49;100.00;62790.56;4957267;28;20500;-88
2022/09/18 06:18:09;;;;;;;7.35;3.85;;;;;;;-145.49;100.00;62790.56;4973236;28;20054;-88
2022/09/18 06:20:35;;;;;;;5.40;4.20;;;;;;;-145.49;100.00;62790.56;4957064;28;20503;-87
2022/09/18 06:23:02;;;;;;;6.95;4.15;;;;;;;-145.49;100.00;62790.56;4958352;28;20306;-87
2022/09/18 06:25:39;;;;;;;7.20;3.33;;;;;;;-145.49;100.00;62790.56;4972330;28;20049;-88
2022/09/18 06:28:12;;;;;;;11.07;3.90;;;;;;;-145.49;100.00;62790.56;4959299;28;20042;-87
2022/09/18 06:30:41;;;;;;;5.97;4.18;;;;;;;-145.49;100.00;62790.56;4935555;28;20054;-89
2022/09/18 06:33:09;;;;;;;14.65;3.25;;;;;;;-145.49;100.00;62790.56;4956042;28;20035;-88
2022/09/18 06:35:37;;;;;;;4.82;3.95;;;;;;;-145.49;100.00;62790.56;4971226;28;20034;-91
2022/09/18 06:38:05;;;;;;;7.22;4.75;;;;;;;-145.49;100.00;62790.56;4957390;28;20047;-90
2022/09/18 06:40:53;;;;;;;5.35;4.07;;;;;;;-145.49;100.00;62790.56;4955436;28;20053;-90
2022/09/18 06:43:24;;;;;;;7.47;4.43;;;;;;;-145.49;100.00;62790.56;4971300;28;20438;-89
2022/09/18 06:46:25;;;;;;;8.30;4.40;;;;;;;-145.49;100.00;62790.56;4949441;28;20038;-89
2022/09/18 06:48:52;;;;;;;5.18;3.60;;;;;;;-145.49;100.00;62790.56;4970394;28;20030;-89
2022/09/18 06:51:19;;;;;;;6.63;3.90;;;;;;;-145.49;100.00;62790.56;4971192;28;20058;-89
2022/09/18 06:54:00;;;;;;;9.30;3.63;;;;;;;-145.49;100.00;62790.56;4937904;28;20043;-90
2022/09/18 06:56:29;;;;;;;5.43;4.07;;;;;;;-145.49;100.00;62790.56;4971525;28;20428;-90
2022/09/18 06:58:55;;;;;;;7.85;3.25;;;;;;;-145.49;100.00;62790.56;4988152;28;20491;-89
2022/09/18 07:01:23;;;;;;;5.60;4.20;;;;;;;-145.49;100.00;62790.56;4954762;28;20045;-90
2022/09/18 07:04:03;;;;;;;9.80;5.10;;;;;;;-145.49;100.00;62790.56;4950508;28;20035;-90
2022/09/18 07:06:42;;;;;;;4.28;3.45;;;;;;;-145.49;100.00;62790.56;4978731;28;20042;-90
2022/09/18 07:09:14;;;;;;;4.95;3.13;;;;;;;-145.49;100.00;62790.56;4961884;28;20050;-91
2022/09/18 07:11:57;;;;;;;7.80;3.28;;;;;;;-145.49;100.00;62790.56;4962248;28;20042;-92
2022/09/18 07:14:33;;;;;;;5.78;3.67;;;;;;;-145.49;100.00;62790.56;4956590;28;20042;-90
2022/09/18 07:17:11;;;;;;;4.07;3.67;;;;;;;-145.49;100.00;62790.56;4971714;28;20038;-91
2022/09/18 07:19:37;;;;;;;6.00;3.95;;;;;;;-145.49;100.00;62790.56;4972460;28;20042;-90
2022/09/18 07:22:05;;;;;;;9.85;5.20;;;;;;;-145.49;100.00;62790.56;4933465;28;20045;-93
2022/09/18 07:24:36;;;;;;;7.93;4.10;;;;;;;-145.49;100.00;62790.56;4967150;28;20066;-91
2022/09/18 07:27:04;;;;;;;10.25;4.85;;;;;;;-145.49;100.00;62790.56;4970539;28;20392;-90
2022/09/18 07:29:33;;;;;;;5.05;3.13;;;;;;;-145.49;100.00;62790.56;4965559;28;20503;-91
2022/09/18 07:32:01;;;;;;;9.52;4.30;;;;;;;-145.49;100.00;62790.56;4933742;28;20309;-91
2022/09/18 07:34:30;;;;;;;3.72;3.00;;;;;;;-145.49;100.00;62790.56;4989286;28;20046;-93
2022/09/18 07:37:01;;;;;;;5.53;4.22;;;;;;;-145.49;100.00;62790.56;4967324;28;20035;-92
2022/09/18 07:39:28;;;;;;;3.63;2.58;;;;;;;-145.49;100.00;62790.56;4959816;28;20045;-92
2022/09/18 07:42:15;;;;;;;4.05;3.17;;;;;;;-145.49;100.00;62790.56;4974010;28;20035;-92
2022/09/18 07:44:48;;;;;;;6.45;4.65;;;;;;;-145.49;100.00;62790.56;4974705;28;20042;-93
2022/09/18 07:47:15;;;;;;;7.88;4.07;;;;;;;-145.49;100.00;62790.56;5015615;28;20025;-92
2022/09/18 07:49:42;;;;;;;9.93;4.68;;;;;;;-145.49;100.00;62790.56;4990040;28;20057;-95
2022/09/18 07:52:10;;;;;;;5.72;3.38;;;;;;;-145.49;100.00;62790.56;4952788;28;20039;-92
2022/09/18 07:54:44;;;;;;;12.88;3.58;;;;;;;-145.49;100.00;62790.56;4973918;28;20043;-94
2022/09/18 07:57:30;;;;;;;4.15;3.85;;;;;;;-145.49;100.00;62790.56;4973622;28;20126;-92
2022/09/18 08:00:14;;;;;;;4.38;3.75;;;;;;;-145.49;100.00;62790.56;4956820;28;20065;-93
2022/09/18 08:02:46;;;;;;;;;;;;;;;-145.49;100.00;62790.56;4957800;28;20046;-89
2022/09/18 08:05:29;;;;;;;3.60;2.53;;;;;;;-145.49;100.00;62790.56;4971551;28;20378;-93
2022/09/18 08:08:06;;;;;;;4.90;3.50;;;;;;;-145.49;100.00;62790.56;4963617;28;20039;-94
2022/09/18 08:10:54;;;;;;;3.58;2.83;;;;;;;-145.49;100.00;62790.56;4956480;28;20065;-94
2022/09/18 08:13:50;;;;;;;3.72;2.50;;;;;;;-145.49;100.00;62790.56;4971530;28;20046;-95
2022/09/18 08:16:48;;;;;;;3.65;2.50;;;;;;;-145.49;100.00;62790.56;4973076;28;20031;-93
2022/09/18 08:19:34;;;;;;;2.25;1.83;;;;;;;-145.49;100.00;62790.56;4963911;28;20281;-92
2022/09/18 08:22:23;;;;;;;2.85;2.40;;;;;;;-145.49;100.00;62790.56;4973266;28;20051;-93
2022/09/18 08:24:53;;;;;;;5.45;3.13;;;;;;;-145.49;100.00;62790.56;4971504;28;20491;-92
2022/09/18 08:27:20;;;;;;;5.60;2.72;;;;;;;-145.49;100.00;62790.56;4972522;28;20515;-93
2022/09/18 08:29:46;;;;;;;3.63;2.83;;;;;;;-145.49;100.00;62790.56;4938122;28;20050;-96
2022/09/18 08:32:13;;;;;;;4.68;2.28;;;;;;;-145.49;100.00;62790.56;4955426;28;20050;-91
2022/09/18 08:34:39;;;;;;;4.88;2.95;;;;;;;-145.49;100.00;62790.56;4971869;28;20516;-95
2022/09/18 08:37:05;;;;;;;1.90;1.63;;;;;;;-145.49;100.00;62790.56;4971990;28;20099;-93
2022/09/18 08:39:53;;;;;;;6.13;2.58;;;;;;;-145.49;100.00;62790.56;4973224;28;20042;-92
2022/09/18 08:42:58;;;;;;;2.38;2.08;;;;;;;-145.49;100.00;62790.56;4971979;28;20034;-92
2022/09/18 08:45:34;;;;;;;5.10;2.60;;;;;;;-145.49;100.00;62790.56;4969686;28;20058;-94
2022/09/18 08:48:13;;;;;;;7.50;2.60;;;;;;;-145.49;100.00;62790.56;4968569;28;20399;-95
2022/09/18 08:50:44;;;;;;;3.72;2.08;;;;;;;-145.49;100.00;62790.56;4956303;28;20404;-93
2022/09/18 08:53:39;;;;;;;2.58;2.35;;;;;;;-145.49;100.00;62790.56;4956986;28;20504;-93
2022/09/18 08:56:26;;;;;;;3.47;2.40;;;;;;;-145.49;100.00;62790.56;4975752;28;21616;-92
2022/09/18 08:59:31;;;;;;;2.80;2.00;;;;;;;-145.49;100.00;62790.56;4975654;28;20038;-93
2022/09/18 09:02:19;;;;;;;3.65;2.45;;;;;;;-145.49;100.00;62790.56;4972346;28;20042;-91
2022/09/18 09:04:48;;;;;;;6.68;3.90;;;;;;;-145.49;100.00;62790.56;4955945;28;20042;-91
2022/09/18 09:08:07;;;;;;;3.85;2.35;;;;;;;-145.49;100.00;62790.56;4965049;28;20038;-89
2022/09/18 09:11:02;;;;;;;3.88;1.95;;;;;;;-145.49;100.00;62790.56;4937864;28;20050;-91
2022/09/18 09:13:53;;;;;;;6.88;2.28;;;;;;;-145.49;100.00;62790.56;4973895;28;20049;-93
2022/09/18 09:16:34;;;;;;;3.75;3.28;;;;;;;-145.49;100.00;62790.56;4982401;28;20504;-96
2022/09/18 09:19:30;;;;;;;3.22;2.10;;;;;;;-145.49;100.00;62790.56;4974118;28;20039;-94
2022/09/18 09:22:08;;;;;;;5.40;2.50;;;;;;;-145.49;100.00;62790.56;4972112;28;20035;-94
2022/09/18 09:24:44;;;;;;;12.13;2.60;;;;;;;-145.49;100.00;62790.56;4968934;28;20038;-93
2022/09/18 09:27:34;;;;;;;5.27;2.23;;;;;;;-145.49;100.00;62790.56;4961308;28;20039;-93
2022/09/18 09:30:23;;;;;;;3.53;2.00;;;;;;;-145.49;100.00;62790.56;4969906;28;20301;-94
2022/09/18 09:33:31;;;;;;;2.60;2.10;;;;;;;-145.49;100.00;62790.56;4962799;28;20060;-93
2022/09/18 09:36:09;;;;;;;3.42;2.47;;;;;;;-145.49;100.00;62790.56;4952202;28;20043;-94
2022/09/18 09:39:28;;;;;;;4.18;2.28;;;;;;;-145.49;100.00;62790.56;4970069;28;20042;-91
2022/09/18 09:42:26;;;;;;;4.03;2.05;;;;;;;-145.49;100.00;62790.56;4969624;28;20123;-92
2022/09/18 09:45:23;;;;;;;2.55;1.77;;;;;;;-145.49;100.00;62790.56;4994509;23;20058;-74
2022/09/18 09:48:17;;;;;;;3.92;2.72;;;;;;;-145.49;100.00;62790.56;4987933;28;20041;-74
2022/09/18 09:50:54;;;;;;;5.18;2.55;;;;;;;-145.49;100.00;62790.56;4982401;28;20507;-73
2022/09/18 09:53:27;;;;;;;2.80;2.25;;;;;;;-145.49;100.00;62790.56;4999911;28;20543;-74
2022/09/18 09:56:34;;;;;;;4.68;2.08;;;;;;;-145.49;100.00;62790.56;4969479;28;20404;-73
2022/09/18 09:59:18;;;;;;;5.35;2.15;;;;;;;-145.49;100.00;62790.56;4966455;28;20058;-73
2022/09/18 10:02:40;;;;;;;4.72;2.33;;;;;;;-145.49;100.00;62790.56;4977989;28;20037;-73
2022/09/18 10:05:27;;;;;;;4.50;1.77;;;;;;;-145.49;100.00;62790.56;4988147;28;20488;-73
2022/09/18 10:08:11;;;;;;;2.65;1.88;;;;;;;-145.49;100.00;62790.56;5006987;28;20038;-73
2022/09/18 10:11:10;;;;;;;2.67;1.88;;;;;;;-145.49;100.00;62790.56;5005061;28;20388;-73
2022/09/18 10:13:57;;;;;;;4.50;2.65;;;;;;;-145.49;100.00;62790.56;4994345;28;20041;-73
2022/09/18 10:16:33;;;;;;;5.70;2.60;;;;;;;-145.49;100.00;62790.56;5011686;28;20041;-73
2022/09/18 10:19:04;;;;;;;3.72;1.85;;;;;;;-145.49;100.00;62790.56;4997248;28;20041;-72
2022/09/18 10:21:36;;;;;;;3.83;2.63;;;;;;;-145.49;100.00;62790.56;4993450;28;20043;-73
2022/09/18 10:24:32;;;;;;;3.60;2.03;;;;;;;-145.49;100.00;62790.56;5006271;28;20030;-73
2022/09/18 10:27:12;;;;;;;2.60;1.85;;;;;;;-145.49;100.00;62790.56;4984796;28;20045;-73
2022/09/18 10:29:40;;;;;;;3.38;1.90;;;;;;;-145.49;100.00;62790.56;4969998;28;20038;-71
2022/09/18 10:32:12;;;;;;;13.00;2.40;;;;;;;-145.49;100.00;62790.56;5004942;28;20034;-71
2022/09/18 10:34:49;;;;;;;3.33;2.15;;;;;;;-145.49;100.00;62790.56;5008769;28;20034;-72
2022/09/18 10:37:27;;;;;;;5.65;1.75;;;;;;;-145.49;100.00;62790.56;4984976;28;20034;-72
2022/09/18 10:39:56;;;;;;;1.60;1.50;;;;;;;-145.49;100.00;62790.56;4972845;28;20046;-72
2022/09/18 10:42:27;;;;;;;2.65;1.83;;;;;;;-145.49;100.00;62790.56;5005152;28;20038;-72
2022/09/18 10:45:21;;;;;;;4.65;1.75;;;;;;;-145.49;100.00;62790.56;5012487;28;20043;-72
2022/09/18 10:47:48;;;;;;;3.78;2.58;;;;;;;-145.49;100.00;62790.56;5001060;28;20038;-72
2022/09/18 10:50:21;;;;;;;2.17;1.52;;;;;;;-145.49;100.00;62790.56;4987832;28;20051;-72
2022/09/18 10:52:52;;;;;;;8.32;3.38;;;;;;;-145.49;100.00;62790.56;5005999;28;20049;-72
2022/09/18 10:55:29;;;;;;;2.97;1.73;;;;;;;-145.49;100.00;62790.56;4999905;28;20038;-72
2022/09/18 10:58:11;;;;;;;2.90;1.50;;;;;;;-145.49;100.00;62790.56;5004160;28;20045;-72
2022/09/18 11:01:02;;;;;;;3.15;1.75;;;;;;;-145.49;100.00;62790.56;5001048;28;20397;-73
2022/09/18 11:03:41;;;;;;;5.40;2.05;;;;;;;-145.49;100.00;62790.56;4986743;28;20507;-72
2022/09/18 11:06:22;;;;;;;4.93;1.85;;;;;;;-145.49;100.00;62790.56;5003422;28;20404;-73
2022/09/18 11:08:51;;;;;;;8.10;2.20;;;;;;;-145.49;100.00;62790.56;4987149;28;20043;-73
2022/09/18 11:11:25;;;;;;;3.05;1.67;;;;;;;-145.49;100.00;62790.56;5000464;28;20054;-73
2022/09/18 11:13:58;;;;;;;9.32;2.53;;;;;;;-145.49;100.00;62790.56;4997795;28;20035;-73
2022/09/18 11:16:32;;;;;;;4.13;1.73;;;;;;;-145.49;100.00;62790.56;4982206;28;20492;-73
2022/09/18 11:19:09;;;;;;;3.28;1.73;;;;;;;-145.49;100.00;62790.56;4987579;28;20419;-73
2022/09/18 11:21:47;;;;;;;2.90;1.77;;;;;;;-145.49;100.00;62790.56;4989420;28;20527;-73
2022/09/18 11:24:20;;;;;;;2.20;1.63;;;;;;;-145.49;100.00;62790.56;4988899;28;20036;-73
2022/09/18 11:26:55;;;;;;;2.83;1.60;;;;;;;-145.49;100.00;62790.56;4997350;28;20510;-73
2022/09/18 11:29:38;;;;;;;4.45;1.40;;;;;;;-145.49;100.00;62790.56;4977090;28;20034;-73
2022/09/18 11:32:15;;;;;;;4.78;1.85;;;;;;;-145.49;100.00;62790.56;5004408;28;20038;-73
2022/09/18 11:34:53;;;;;;;6.68;1.70;;;;;;;-145.49;100.00;62790.56;4973274;28;20057;-73
2022/09/18 11:37:44;;;;;;;3.60;1.77;;;;;;;-145.49;100.00;62790.56;4970904;28;20039;-73
2022/09/18 11:40:31;;;;;;;3.80;1.75;;;;;;;-145.49;100.00;62790.56;4998759;28;20034;-73
2022/09/18 11:43:14;;;;;;;3.13;1.30;;;;;;;-145.49;100.00;62790.56;5003771;28;20042;-73
2022/09/18 11:46:04;;;;;;;2.08;1.67;;;;;;;-145.49;100.00;62790.56;4969527;28;20779;-73
2022/09/18 11:48:32;;;;;;;3.22;2.53;;;;;;;-145.49;100.00;62790.56;4990076;28;20507;-73
2022/09/18 11:51:03;;;;;;;3.08;1.20;;;;;;;-145.49;100.00;62790.56;4983801;28;20034;-73
2022/09/18 11:53:40;;;;;;;3.47;1.92;;;;;;;-145.49;100.00;62790.56;4990455;28;20038;-71
2022/09/18 11:56:36;;;;;;;4.88;1.92;;;;;;;-145.49;100.00;62790.56;5004633;28;20377;-72